Terminal Aerodrome Forecast
Issued by NWS

Home | Current Version | Previous Version | Text Only | Print | Product List | Glossary On
Versions: 1 2 3 4 5 6 7 8 9 10 11 12 13 14 15 16 17 18 19 20 21 22 23 24 25 26 27 28 29 30 31 32 33 34
000
FTUS45 KREV 100539
TAFRNO
TAF
KRNO 100539Z 1006/1106 21018G30KT P6SM SCT060 BKN100 WS020/23035KT
     FM101000 23024G38KT P6SM -RA FEW020 BKN040 OVC080 WS015/25045KT
     FM101200 25014G24KT 5SM RA BR SCT020 BKN030
     FM101800 27018G29KT P6SM -SHRA SCT025 BKN040
     FM110200 30011G18KT P6SM VCSH SCT030 BKN060=

USA.gov is the U.S. government's official web portal to all federal, state and local government web resources and services.